KGNT/GNT METAR and TAF weather

Enter ICAO airport designator
Station Type Date Time Source
KGNT METAR 2021/10/20 05:55 UTC NOAA

KGNT 200555Z AUTO 31005KT 10SM CLR 00/M06 A3026 RMK AO2 T00031061 10150 20003


Station Type Date Time Source
KGNT Decoded METAR 2021/10/20 05:55 UTC NOAA

GRANTS-MILAN MUNICIPAL AIRPORT , NM, United States (KGNT) 35-10N 107-54W 1987M
Oct 20, 2021 - 01:55 AM EDT / 2021.10.20 0555 UTC
Wind: from the NW (310 degrees) at 6 MPH (5 KT):0
Visibility: 10 mile(s):0
Sky conditions: clear
Temperature: 32.5 F (0.3 C)
Windchill: 26 F (-3 C):1
Dew Point: 21.0 F (-6.1 C)
Relative Humidity: 62%
Pressure (altimeter): 30.26 in. Hg (1024 hPa)
ob: KGNT 200555Z AUTO 31005KT 10SM CLR 00/M06 A3026 RMK AO2 T00031061 10150 20003
cycle: 6

Station Type Date Time Source
KGNT TAF UTC NOAA

Error!

Example: see airport list